Time;durP1;ratioP1;P1;durP2;ratioP2;P2;SDS_P1;SDS_P2;PMS_P1;PMS_P2;Temp;Humidity;BMP_temperature;BMP_pressure;BME280_temperature;BME280_humidity;BME280_pressure;Samples;Min_cycle;Max_cycle;Signal;HPM_P1;HPM_P2
2023/08/21 00:00:08;;;;;;;0.00;0.00;;;17.60;81.00;;;;;;5011852;28;20042;-69
2023/08/21 00:02:33;;;;;;;0.00;0.00;;;17.60;80.90;;;;;;5010732;28;20128;-70
2023/08/21 00:04:59;;;;;;;0.00;0.00;;;17.50;80.90;;;;;;5025599;28;20203;-70
2023/08/21 00:07:25;;;;;;;0.00;0.00;;;17.60;81.10;;;;;;5030120;28;20045;-70
2023/08/21 00:09:51;;;;;;;0.00;0.00;;;17.60;81.20;;;;;;5030295;28;20419;-70
2023/08/21 00:12:16;;;;;;;0.00;0.00;;;17.60;81.40;;;;;;5030512;28;20053;-70
2023/08/21 00:14:42;;;;;;;0.00;0.00;;;17.50;81.50;;;;;;5029519;28;20124;-69
2023/08/21 00:17:08;;;;;;;0.00;0.00;;;17.50;81.70;;;;;;5013635;28;20046;-69
2023/08/21 00:19:34;;;;;;;0.00;0.00;;;17.50;81.90;;;;;;5030196;28;20041;-69
2023/08/21 00:22:00;;;;;;;0.00;0.00;;;17.50;81.80;;;;;;5030140;28;20099;-70
2023/08/21 00:24:25;;;;;;;0.00;0.00;;;17.50;81.70;;;;;;5030803;28;20033;-69
2023/08/21 00:26:51;;;;;;;0.00;0.00;;;17.40;81.60;;;;;;5030515;28;20052;-69
2023/08/21 00:29:17;;;;;;;0.00;0.00;;;17.50;81.60;;;;;;5029605;28;20403;-69
2023/08/21 00:31:42;;;;;;;0.00;0.00;;;17.50;82.00;;;;;;5031321;28;20057;-71
2023/08/21 00:34:08;;;;;;;0.00;0.00;;;17.40;82.10;;;;;;5029145;28;20037;-70
2023/08/21 00:36:33;;;;;;;0.00;0.00;;;17.40;82.00;;;;;;5030783;28;20103;-70
2023/08/21 00:38:59;;;;;;;0.00;0.00;;;17.40;82.00;;;;;;5030775;28;20380;-70
2023/08/21 00:41:25;;;;;;;0.00;0.00;;;17.40;81.90;;;;;;5031114;28;20107;-69
2023/08/21 00:43:50;;;;;;;0.00;0.00;;;17.40;81.90;;;;;;5029483;28;20049;-71
2023/08/21 00:46:17;;;;;;;0.00;0.00;;;17.50;82.00;;;;;;5029632;28;20042;-69
2023/08/21 00:48:43;;;;;;;0.00;0.00;;;17.40;81.80;;;;;;5030734;28;20075;-69
2023/08/21 00:51:10;;;;;;;0.00;0.00;;;17.40;82.00;;;;;;5029624;28;20061;-68
2023/08/21 00:53:36;;;;;;;0.00;0.00;;;17.40;82.00;;;;;;5029974;28;20057;-69
2023/08/21 00:56:02;;;;;;;0.00;0.00;;;17.40;82.00;;;;;;5028773;28;20506;-69
2023/08/21 00:58:28;;;;;;;0.00;0.00;;;17.50;82.00;;;;;;5011276;28;20074;-69
2023/08/21 01:00:54;;;;;;;0.00;0.00;;;17.40;82.00;;;;;;5010388;28;20058;-69
2023/08/21 01:03:20;;;;;;;0.00;0.00;;;17.40;82.00;;;;;;5015782;28;20053;-69
2023/08/21 01:05:45;;;;;;;0.00;0.00;;;17.30;82.00;;;;;;5028853;28;20060;-72
2023/08/21 01:08:30;;;;;;;0.00;0.00;;;17.30;82.20;;;;;;5029782;28;20084;-70
2023/08/21 01:11:17;;;;;;;0.00;0.00;;;17.30;82.40;;;;;;5029143;28;20049;-69
2023/08/21 01:14:01;;;;;;;0.00;0.00;;;17.20;82.20;;;;;;5031982;28;20054;-69
2023/08/21 01:16:28;;;;;;;0.00;0.00;;;17.20;82.20;;;;;;5013436;28;20188;-71
2023/08/21 01:18:55;;;;;;;0.00;0.00;;;17.10;82.30;;;;;;5014679;28;20046;-69
2023/08/21 01:21:20;;;;;;;0.00;0.00;;;17.10;82.30;;;;;;5031449;28;20415;-69
2023/08/21 01:23:46;;;;;;;0.00;0.00;;;17.10;82.80;;;;;;5013247;28;20050;-70
2023/08/21 01:26:12;;;;;;;0.00;0.00;;;17.10;83.00;;;;;;5030294;28;20132;-69
2023/08/21 01:28:38;;;;;;;0.00;0.00;;;17.10;83.00;;;;;;5032914;28;20138;-69
2023/08/21 01:31:26;;;;;;;0.00;0.00;;;17.10;82.90;;;;;;5033027;28;20052;-69
2023/08/21 01:33:57;;;;;;;0.00;0.00;;;17.10;82.80;;;;;;5021658;28;20490;-70
2023/08/21 01:36:24;;;;;;;0.00;0.00;;;17.10;82.70;;;;;;5013427;28;20046;-69
2023/08/21 01:38:50;;;;;;;0.00;0.00;;;17.10;82.70;;;;;;5014217;28;20049;-70
2023/08/21 01:41:16;;;;;;;0.00;0.00;;;17.00;82.60;;;;;;5029752;28;20081;-69
2023/08/21 01:43:42;;;;;;;0.00;0.00;;;17.00;82.60;;;;;;5033024;28;20092;-69
2023/08/21 01:46:09;;;;;;;0.00;0.00;;;17.00;82.70;;;;;;5031768;28;20516;-70
2023/08/21 01:48:34;;;;;;;0.00;0.00;;;17.00;82.70;;;;;;5032522;28;20041;-70
2023/08/21 01:51:02;;;;;;;0.00;0.00;;;17.00;82.70;;;;;;5033184;28;20455;-69
2023/08/21 01:53:27;;;;;;;0.00;0.00;;;17.00;82.70;;;;;;5032734;28;20136;-69
2023/08/21 01:55:53;;;;;;;0.00;0.00;;;17.00;82.60;;;;;;5031802;28;20136;-69
2023/08/21 01:58:19;;;;;;;0.00;0.00;;;16.90;82.60;;;;;;5033749;28;20391;-70
2023/08/21 02:00:47;;;;;;;0.00;0.00;;;16.90;82.60;;;;;;5031769;28;20033;-69
2023/08/21 02:03:13;;;;;;;0.00;0.00;;;16.90;82.70;;;;;;5033613;28;20041;-70
2023/08/21 02:05:39;;;;;;;0.00;0.00;;;16.90;82.90;;;;;;5031812;28;20559;-68
2023/08/21 02:08:06;;;;;;;0.00;0.00;;;16.90;83.00;;;;;;5032301;28;20406;-70
2023/08/21 02:10:32;;;;;;;0.05;0.05;;;16.90;82.90;;;;;;5031766;28;20053;-68
2023/08/21 02:12:58;;;;;;;0.00;0.00;;;16.90;82.90;;;;;;5032364;28;20113;-69
2023/08/21 02:15:23;;;;;;;0.00;0.00;;;16.80;82.80;;;;;;5032998;28;20080;-70
2023/08/21 02:17:49;;;;;;;0.00;0.00;;;16.80;82.60;;;;;;5033340;28;20107;-70
2023/08/21 02:20:15;;;;;;;0.00;0.00;;;16.70;82.40;;;;;;5032170;28;20128;-70
2023/08/21 02:22:40;;;;;;;0.00;0.00;;;16.60;82.20;;;;;;5031588;28;20068;-70
2023/08/21 02:25:06;;;;;;;0.00;0.00;;;16.60;82.40;;;;;;5031098;28;20538;-70
2023/08/21 02:27:32;;;;;;;0.00;0.00;;;16.50;82.40;;;;;;5031978;28;20065;-69
2023/08/21 02:29:57;;;;;;;0.00;0.00;;;16.50;82.50;;;;;;5031886;28;20054;-70
2023/08/21 02:32:23;;;;;;;0.00;0.00;;;16.50;82.50;;;;;;5032660;28;20054;-70
2023/08/21 02:34:49;;;;;;;0.00;0.00;;;16.40;82.60;;;;;;5032901;28;20037;-70
2023/08/21 02:37:14;;;;;;;0.00;0.00;;;16.40;82.70;;;;;;5032884;28;20051;-70
2023/08/21 02:39:40;;;;;;;0.00;0.00;;;16.40;83.00;;;;;;5032448;28;20506;-70
2023/08/21 02:42:06;;;;;;;0.00;0.00;;;16.40;83.20;;;;;;5031237;28;20061;-69
2023/08/21 02:44:31;;;;;;;0.00;0.00;;;16.40;83.30;;;;;;5031488;28;20056;-69
2023/08/21 02:46:57;;;;;;;0.00;0.00;;;16.40;83.10;;;;;;5031476;28;20568;-70
2023/08/21 02:49:23;;;;;;;0.00;0.00;;;16.40;82.90;;;;;;5033063;28;20045;-69
2023/08/21 02:51:48;;;;;;;0.00;0.00;;;16.20;82.60;;;;;;5029541;28;20044;-70
2023/08/21 02:54:14;;;;;;;0.00;0.00;;;16.10;82.30;;;;;;5031453;28;20411;-69
2023/08/21 02:56:39;;;;;;;0.00;0.00;;;16.10;82.30;;;;;;5032639;28;20042;-69
2023/08/21 02:59:05;;;;;;;0.00;0.00;;;16.10;82.30;;;;;;5031448;28;20041;-70
2023/08/21 03:01:31;;;;;;;0.00;0.00;;;16.10;82.40;;;;;;5031223;28;20053;-71
2023/08/21 03:03:56;;;;;;;0.00;0.00;;;16.10;82.40;;;;;;5032521;28;20064;-68
2023/08/21 03:06:22;;;;;;;0.00;0.00;;;16.10;82.40;;;;;;5031304;28;20136;-70
2023/08/21 03:08:47;;;;;;;0.00;0.00;;;16.00;82.50;;;;;;5030625;28;20491;-69
2023/08/21 03:11:13;;;;;;;0.00;0.00;;;16.00;82.70;;;;;;5030936;28;20037;-69
2023/08/21 03:13:39;;;;;;;0.00;0.00;;;15.90;82.80;;;;;;5031072;28;20060;-68
2023/08/21 03:16:05;;;;;;;0.00;0.00;;;15.80;82.50;;;;;;5030460;28;20049;-68
2023/08/21 03:18:32;;;;;;;0.00;0.00;;;15.80;82.40;;;;;;5031206;28;20048;-68
2023/08/21 03:20:58;;;;;;;0.00;0.00;;;15.70;82.20;;;;;;5029590;28;20128;-70
2023/08/21 03:23:23;;;;;;;0.00;0.00;;;15.70;82.10;;;;;;5031113;28;20076;-69
2023/08/21 03:25:52;;;;;;;0.00;0.00;;;15.70;82.20;;;;;;5031556;28;20136;-69
2023/08/21 03:28:18;;;;;;;0.00;0.00;;;15.70;82.20;;;;;;5030536;28;20055;-70
2023/08/21 03:30:44;;;;;;;0.00;0.00;;;15.70;82.30;;;;;;5031085;28;20488;-69
2023/08/21 03:33:09;;;;;;;0.00;0.00;;;15.70;82.40;;;;;;5032000;28;20414;-70
2023/08/21 03:35:35;;;;;;;0.00;0.00;;;15.70;82.60;;;;;;5029861;28;20076;-68
2023/08/21 03:38:01;;;;;;;0.00;0.00;;;15.80;82.60;;;;;;5029816;28;20038;-69
2023/08/21 03:40:26;;;;;;;0.00;0.00;;;15.80;82.60;;;;;;5032193;28;20139;-68
2023/08/21 03:42:52;;;;;;;0.00;0.00;;;15.80;82.90;;;;;;5020832;28;20049;-69
2023/08/21 03:45:17;;;;;;;0.00;0.00;;;15.80;83.10;;;;;;5026344;28;20050;-68
2023/08/21 03:47:43;;;;;;;0.00;0.00;;;15.80;83.20;;;;;;5030676;28;20045;-68
2023/08/21 03:50:09;;;;;;;0.00;0.00;;;15.80;83.30;;;;;;5031416;28;20049;-71
2023/08/21 03:52:35;;;;;;;0.00;0.00;;;15.80;83.20;;;;;;5030152;28;20494;-69
2023/08/21 03:55:00;;;;;;;0.00;0.00;;;15.90;83.40;;;;;;5029649;28;20041;-69
2023/08/21 03:57:27;;;;;;;0.00;0.00;;;15.80;83.80;;;;;;5023216;28;20082;-70
2023/08/21 03:59:53;;;;;;;0.00;0.00;;;15.90;83.90;;;;;;5010699;28;20085;-69
2023/08/21 04:02:18;;;;;;;0.00;0.00;;;15.90;84.30;;;;;;5028723;28;20053;-69
2023/08/21 04:04:44;;;;;;;0.00;0.00;;;15.80;84.10;;;;;;5030662;28;20493;-70
2023/08/21 04:07:09;;;;;;;0.00;0.00;;;15.80;84.10;;;;;;5030209;28;20446;-69
2023/08/21 04:09:35;;;;;;;0.00;0.00;;;15.90;84.10;;;;;;5031225;28;20048;-69
2023/08/21 04:12:01;;;;;;;0.00;0.00;;;15.90;84.10;;;;;;5030923;28;20080;-69
2023/08/21 04:14:26;;;;;;;0.00;0.00;;;15.90;84.10;;;;;;5023557;28;20060;-69
2023/08/21 04:16:52;;;;;;;0.00;0.00;;;15.80;84.20;;;;;;5030321;28;20132;-71
2023/08/21 04:19:17;;;;;;;0.00;0.00;;;15.80;84.20;;;;;;5030252;28;20052;-69
2023/08/21 04:21:43;;;;;;;0.00;0.00;;;15.90;84.10;;;;;;5029291;28;20037;-69
2023/08/21 04:24:09;;;;;;;0.00;0.00;;;15.90;84.30;;;;;;5029455;28;20033;-72
2023/08/21 04:26:34;;;;;;;0.00;0.00;;;15.80;84.20;;;;;;5029050;28;20053;-70
2023/08/21 04:29:00;;;;;;;0.00;0.00;;;15.90;84.30;;;;;;5029077;28;20053;-70
2023/08/21 04:31:25;;;;;;;0.00;0.00;;;15.90;84.50;;;;;;5029203;28;20057;-71
2023/08/21 04:33:51;;;;;;;0.00;0.00;;;15.90;84.60;;;;;;5030992;28;20052;-69
2023/08/21 04:36:17;;;;;;;0.00;0.00;;;16.00;84.70;;;;;;5029192;28;20045;-69
2023/08/21 04:38:43;;;;;;;0.00;0.00;;;16.00;85.00;;;;;;5030239;28;20045;-70
2023/08/21 04:41:09;;;;;;;0.00;0.00;;;16.00;85.20;;;;;;5029123;28;20406;-69
2023/08/21 04:43:35;;;;;;;0.00;0.00;;;16.00;85.30;;;;;;5029861;28;20328;-71
2023/08/21 04:46:01;;;;;;;0.00;0.00;;;16.00;85.40;;;;;;5029715;28;20120;-69
2023/08/21 04:48:27;;;;;;;0.00;0.00;;;16.00;85.20;;;;;;5033878;28;20136;-68
2023/08/21 04:50:52;;;;;;;0.00;0.00;;;16.00;85.00;;;;;;5034695;28;20041;-69
2023/08/21 04:53:18;;;;;;;0.00;0.00;;;16.00;84.90;;;;;;5034806;28;20497;-68
2023/08/21 04:55:43;;;;;;;0.00;0.00;;;16.00;84.90;;;;;;5033579;28;20054;-68
2023/08/21 04:58:10;;;;;;;0.00;0.00;;;16.10;84.80;;;;;;5033076;28;20041;-68
2023/08/21 05:00:36;;;;;;;0.00;0.00;;;16.10;84.80;;;;;;5031830;28;20049;-68
2023/08/21 05:03:01;;;;;;;0.00;0.00;;;16.10;84.70;;;;;;5033288;28;20410;-70
2023/08/21 05:05:27;;;;;;;0.00;0.00;;;16.10;84.70;;;;;;5033359;28;20493;-74
2023/08/21 05:07:53;;;;;;;0.00;0.00;;;16.20;84.60;;;;;;5033345;28;20073;-70
2023/08/21 05:10:19;;;;;;;0.00;0.00;;;16.20;84.70;;;;;;5032833;28;20054;-70
2023/08/21 05:12:45;;;;;;;0.00;0.00;;;16.20;84.60;;;;;;5033390;28;20073;-70
2023/08/21 05:15:11;;;;;;;0.00;0.00;;;16.20;84.50;;;;;;5032480;28;20051;-71
2023/08/21 05:17:37;;;;;;;0.00;0.00;;;16.20;84.40;;;;;;5033050;28;20072;-70
2023/08/21 05:20:03;;;;;;;0.00;0.00;;;16.20;84.50;;;;;;5033681;28;20038;-71
2023/08/21 05:22:28;;;;;;;0.00;0.00;;;16.20;84.70;;;;;;5033329;28;20140;-71
2023/08/21 05:24:54;;;;;;;0.00;0.00;;;16.30;84.80;;;;;;5032833;28;20056;-71
2023/08/21 05:27:20;;;;;;;0.00;0.00;;;16.30;84.90;;;;;;5032593;28;20049;-70
2023/08/21 05:29:46;;;;;;;0.00;0.00;;;16.40;85.20;;;;;;5033848;28;20548;-70
2023/08/21 05:32:12;;;;;;;0.00;0.00;;;16.40;85.50;;;;;;5033066;28;20045;-70
2023/08/21 05:34:38;;;;;;;0.00;0.00;;;16.40;85.50;;;;;;5016295;28;20052;-71
2023/08/21 05:37:03;;;;;;;0.00;0.00;;;16.50;85.60;;;;;;5033466;28;20045;-71
2023/08/21 05:39:29;;;;;;;0.00;0.00;;;16.60;85.70;;;;;;5016099;28;20049;-71
2023/08/21 05:41:55;;;;;;;0.00;0.00;;;16.60;85.60;;;;;;5033550;28;20084;-70
2023/08/21 05:44:21;;;;;;;0.00;0.00;;;16.60;85.50;;;;;;5032898;28;20061;-70
2023/08/21 05:46:47;;;;;;;0.00;0.00;;;16.60;85.50;;;;;;5032263;28;20072;-69
2023/08/21 05:49:13;;;;;;;0.00;0.00;;;16.70;85.50;;;;;;5033877;28;20045;-68
2023/08/21 05:51:38;;;;;;;0.00;0.00;;;16.70;85.40;;;;;;5032930;28;20069;-69
2023/08/21 05:54:04;;;;;;;0.00;0.00;;;16.80;85.50;;;;;;5015401;28;20092;-68
2023/08/21 05:56:30;;;;;;;0.00;0.00;;;16.80;85.50;;;;;;5024079;28;20049;-68
2023/08/21 05:58:55;;;;;;;0.00;0.00;;;16.80;85.60;;;;;;5012092;28;20046;-69
2023/08/21 06:01:21;;;;;;;0.00;0.00;;;16.90;85.70;;;;;;5028994;28;20384;-70
2023/08/21 06:03:47;;;;;;;0.00;0.00;;;16.90;85.70;;;;;;5032587;28;20076;-70
2023/08/21 06:06:12;;;;;;;0.00;0.00;;;17.00;85.80;;;;;;5016313;28;20096;-70
2023/08/21 06:08:38;;;;;;;0.00;0.00;;;17.10;85.90;;;;;;5025490;28;20400;-70
2023/08/21 06:11:03;;;;;;;0.00;0.00;;;17.10;86.00;;;;;;5032447;28;20049;-70
2023/08/21 06:13:31;;;;;;;0.00;0.00;;;17.20;86.10;;;;;;5033385;28;20469;-72
2023/08/21 06:15:56;;;;;;;0.00;0.00;;;17.30;86.00;;;;;;5032137;28;20128;-70
2023/08/21 06:18:22;;;;;;;0.00;0.00;;;17.30;86.00;;;;;;5032553;28;20120;-70
2023/08/21 06:20:53;;;;;;;0.00;0.00;;;17.40;86.10;;;;;;5032293;28;20076;-69
2023/08/21 06:23:19;;;;;;;0.00;0.00;;;17.50;86.20;;;;;;5031653;28;20487;-68
2023/08/21 06:25:47;;;;;;;0.00;0.00;;;17.50;86.10;;;;;;5032175;28;20072;-68
2023/08/21 06:28:12;;;;;;;0.00;0.00;;;17.60;86.20;;;;;;5030636;28;20064;-69
2023/08/21 06:30:38;;;;;;;0.00;0.00;;;17.60;86.40;;;;;;5032270;28;20045;-68
2023/08/21 06:33:03;;;;;;;0.00;0.00;;;17.70;86.60;;;;;;5033110;28;20498;-69
2023/08/21 06:35:29;;;;;;;0.00;0.00;;;17.70;86.90;;;;;;5033075;28;20076;-69
2023/08/21 06:37:55;;;;;;;0.00;0.00;;;17.70;86.90;;;;;;5031817;28;20077;-68
2023/08/21 06:40:20;;;;;;;0.00;0.00;;;17.80;86.70;;;;;;5032683;28;20798;-68
2023/08/21 06:42:46;;;;;;;0.00;0.00;;;17.90;86.70;;;;;;5030543;28;20056;-68
2023/08/21 06:45:12;;;;;;;0.00;0.00;;;17.90;86.50;;;;;;5030121;28;20132;-69
2023/08/21 06:47:37;;;;;;;0.00;0.00;;;18.00;86.70;;;;;;5022326;28;20399;-68
2023/08/21 06:50:03;;;;;;;0.03;0.03;;;18.00;87.20;;;;;;5018274;28;20487;-69
2023/08/21 06:52:29;;;;;;;0.00;0.00;;;18.10;87.20;;;;;;5017875;28;20155;-69
2023/08/21 06:54:54;;;;;;;0.00;0.00;;;18.10;87.50;;;;;;5013670;28;20137;-69
2023/08/21 06:57:20;;;;;;;0.00;0.00;;;18.10;87.50;;;;;;5015824;28;20055;-69
2023/08/21 06:59:46;;;;;;;0.00;0.00;;;18.20;87.30;;;;;;5022164;28;20049;-71
2023/08/21 07:02:11;;;;;;;0.00;0.00;;;18.30;87.20;;;;;;5025917;28;20495;-69
2023/08/21 07:04:40;;;;;;;0.00;0.00;;;18.30;87.00;;;;;;5016424;28;20068;-69
2023/08/21 07:07:05;;;;;;;0.00;0.00;;;18.40;87.00;;;;;;5017508;28;20132;-69
2023/08/21 07:09:31;;;;;;;0.00;0.00;;;18.40;87.30;;;;;;5019409;28;20408;-69
2023/08/21 07:11:57;;;;;;;0.00;0.00;;;18.50;87.30;;;;;;5021204;28;20112;-69
2023/08/21 07:14:22;;;;;;;0.00;0.00;;;18.50;86.90;;;;;;5016475;28;20126;-69
2023/08/21 07:16:48;;;;;;;0.00;0.00;;;18.60;87.00;;;;;;5017760;28;20088;-70
2023/08/21 07:19:13;;;;;;;0.00;0.00;;;18.60;86.90;;;;;;5018345;28;20050;-69
2023/08/21 07:21:39;;;;;;;0.00;0.00;;;18.70;86.70;;;;;;5015371;28;20049;-70
2023/08/21 07:24:05;;;;;;;1.85;1.08;;;18.80;87.10;;;;;;5013385;28;20054;-70
2023/08/21 07:26:31;;;;;;;0.00;0.00;;;18.90;87.40;;;;;;5016199;28;20395;-69
2023/08/21 07:28:57;;;;;;;0.00;0.00;;;18.90;87.50;;;;;;5012179;28;20273;-70
2023/08/21 07:31:23;;;;;;;0.00;0.00;;;19.00;87.50;;;;;;5012955;28;20038;-70
2023/08/21 07:33:49;;;;;;;0.00;0.00;;;19.10;87.40;;;;;;5012195;28;20042;-71
2023/08/21 07:36:17;;;;;;;0.00;0.00;;;19.10;87.30;;;;;;5026844;28;20383;-71
2023/08/21 07:38:46;;;;;;;0.00;0.00;;;19.20;87.20;;;;;;5017410;28;20058;-70
2023/08/21 07:41:12;;;;;;;0.00;0.00;;;19.20;87.30;;;;;;5013187;28;20491;-69
2023/08/21 07:43:42;;;;;;;0.00;0.00;;;19.30;87.30;;;;;;5017330;28;20105;-69
2023/08/21 07:46:13;;;;;;;0.05;0.05;;;19.40;87.30;;;;;;5017869;28;20049;-69
2023/08/21 07:48:39;;;;;;;0.00;0.00;;;19.40;87.20;;;;;;5018118;28;20057;-71
2023/08/21 07:51:05;;;;;;;0.00;0.00;;;19.50;87.40;;;;;;5017892;28;20119;-70
2023/08/21 07:53:31;;;;;;;0.00;0.00;;;19.60;87.00;;;;;;5021850;28;20049;-70
2023/08/21 07:55:58;;;;;;;0.00;0.00;;;19.60;87.10;;;;;;5021565;28;20049;-70
2023/08/21 07:58:24;;;;;;;0.00;0.00;;;19.70;87.10;;;;;;5021891;28;20466;-68
2023/08/21 08:00:49;;;;;;;0.00;0.00;;;19.80;86.90;;;;;;5017107;28;20073;-69
2023/08/21 08:03:15;;;;;;;0.00;0.00;;;19.80;86.60;;;;;;5020294;28;20086;-69
2023/08/21 08:05:44;;;;;;;0.00;0.00;;;19.90;85.80;;;;;;5017798;28;20061;-70
2023/08/21 08:08:10;;;;;;;0.00;0.00;;;19.90;85.70;;;;;;5011306;28;20092;-71
2023/08/21 08:10:40;;;;;;;0.00;0.00;;;20.00;85.40;;;;;;4996572;28;20073;-68
2023/08/21 08:13:05;;;;;;;0.00;0.00;;;20.00;85.20;;;;;;5017682;28;20053;-70
2023/08/21 08:15:31;;;;;;;0.00;0.00;;;20.10;85.00;;;;;;5025622;28;20049;-69
2023/08/21 08:17:57;;;;;;;0.00;0.00;;;20.10;84.80;;;;;;5028378;28;20122;-70
2023/08/21 08:20:23;;;;;;;0.00;0.00;;;20.20;84.40;;;;;;5025970;28;20041;-69
2023/08/21 08:22:48;;;;;;;0.00;0.00;;;20.30;84.30;;;;;;5028251;28;20118;-68
2023/08/21 08:25:14;;;;;;;0.00;0.00;;;20.40;84.30;;;;;;5033636;28;20102;-69
2023/08/21 08:27:40;;;;;;;0.00;0.00;;;20.50;84.00;;;;;;5033690;28;20060;-68
2023/08/21 08:30:07;;;;;;;0.00;0.00;;;20.50;83.60;;;;;;5015812;28;20084;-69
2023/08/21 08:32:34;;;;;;;0.00;0.00;;;20.70;83.20;;;;;;5033008;28;20121;-68
2023/08/21 08:34:59;;;;;;;0.00;0.00;;;20.70;83.00;;;;;;5033590;28;20045;-68
2023/08/21 08:37:25;;;;;;;0.00;0.00;;;20.80;82.80;;;;;;5032091;28;20052;-68
2023/08/21 08:39:51;;;;;;;0.00;0.00;;;20.90;81.60;;;;;;5031088;28;20187;-69
2023/08/21 08:42:16;;;;;;;0.00;0.00;;;20.90;81.10;;;;;;5031101;28;20075;-70
2023/08/21 08:44:43;;;;;;;0.00;0.00;;;21.00;80.90;;;;;;5030816;28;20050;-69
2023/08/21 08:47:10;;;;;;;0.20;0.20;;;21.10;81.00;;;;;;5029990;28;20513;-68
2023/08/21 08:49:37;;;;;;;0.00;0.00;;;21.10;81.00;;;;;;5009185;28;20057;-70
2023/08/21 08:52:04;;;;;;;0.00;0.00;;;21.10;80.90;;;;;;5028344;28;20058;-69
2023/08/21 08:54:30;;;;;;;0.00;0.00;;;21.10;80.60;;;;;;5028548;28;20434;-69
2023/08/21 08:56:56;;;;;;;0.00;0.00;;;21.20;80.30;;;;;;5033936;28;20552;-69
2023/08/21 08:59:22;;;;;;;0.00;0.00;;;21.20;79.80;;;;;;5031313;28;20045;-69
2023/08/21 09:01:48;;;;;;;0.00;0.00;;;21.20;79.50;;;;;;5034546;28;20056;-69
2023/08/21 09:04:13;;;;;;;0.00;0.00;;;21.30;80.00;;;;;;5029230;28;20056;-69
2023/08/21 09:06:39;;;;;;;0.00;0.00;;;21.40;79.90;;;;;;5032305;28;20121;-69
2023/08/21 09:09:07;;;;;;;0.00;0.00;;;21.40;79.60;;;;;;5031258;28;20060;-71
2023/08/21 09:11:33;;;;;;;0.00;0.00;;;21.50;79.70;;;;;;5032019;28;20054;-69
2023/08/21 09:13:59;;;;;;;0.00;0.00;;;21.50;79.10;;;;;;5024301;28;20560;-69
2023/08/21 09:16:25;;;;;;;0.00;0.00;;;21.50;79.10;;;;;;5030425;28;20048;-68
2023/08/21 09:18:58;;;;;;;0.00;0.00;;;21.50;79.20;;;;;;5032086;28;20050;-68
2023/08/21 09:21:25;;;;;;;0.00;0.00;;;21.50;79.00;;;;;;5031457;28;20136;-71
2023/08/21 09:23:58;;;;;;;0.00;0.00;;;21.60;79.00;;;;;;5028765;28;20048;-70
2023/08/21 09:26:24;;;;;;;0.00;0.00;;;21.60;78.30;;;;;;5030019;28;20045;-68
2023/08/21 09:28:52;;;;;;;0.00;0.00;;;21.70;78.70;;;;;;5032613;28;20149;-71
2023/08/21 09:31:33;;;;;;;0.00;0.00;;;21.70;78.50;;;;;;5032817;28;20049;-70
2023/08/21 09:34:06;;;;;;;0.00;0.00;;;21.80;78.20;;;;;;5030292;28;20072;-70
2023/08/21 09:36:35;;;;;;;0.00;0.00;;;21.80;77.50;;;;;;5030780;28;20418;-70
2023/08/21 09:39:03;;;;;;;0.52;0.52;;;21.90;77.00;;;;;;5013061;28;20049;-70
2023/08/21 09:41:28;;;;;;;0.00;0.00;;;22.00;76.90;;;;;;5012503;28;20053;-70
2023/08/21 09:43:59;;;;;;;0.00;0.00;;;22.00;77.30;;;;;;5025257;28;20055;-71
2023/08/21 09:46:27;;;;;;;0.00;0.00;;;22.00;76.00;;;;;;5023188;28;21288;-71
2023/08/21 09:48:53;;;;;;;0.00;0.00;;;22.10;76.60;;;;;;5008780;28;20556;-70
2023/08/21 09:51:20;;;;;;;0.10;0.10;;;22.20;74.30;;;;;;5024683;28;20104;-70
2023/08/21 09:53:48;;;;;;;0.00;0.00;;;22.20;75.20;;;;;;5024407;28;20038;-70
2023/08/21 09:56:14;;;;;;;0.00;0.00;;;22.30;74.50;;;;;;5024446;28;20107;-70
2023/08/21 09:58:40;;;;;;;0.00;0.00;;;22.40;74.90;;;;;;5022485;28;20045;-70
2023/08/21 10:01:13;;;;;;;0.00;0.00;;;22.30;74.90;;;;;;5023357;28;20081;-70
2023/08/21 10:03:40;;;;;;;0.00;0.00;;;22.40;74.80;;;;;;5022286;28;20042;-71
2023/08/21 10:06:08;;;;;;;0.00;0.00;;;22.50;74.50;;;;;;5024323;28;20064;-70
2023/08/21 10:08:40;;;;;;;0.00;0.00;;;22.60;73.30;;;;;;5025934;28;20076;-70
2023/08/21 10:11:10;;;;;;;0.00;0.00;;;22.70;72.90;;;;;;5002996;28;20506;-70
2023/08/21 10:13:38;;;;;;;0.00;0.00;;;22.70;73.00;;;;;;5020773;28;20049;-73
2023/08/21 10:16:05;;;;;;;0.00;0.00;;;22.80;72.10;;;;;;5007830;28;20511;-71
2023/08/21 10:18:35;;;;;;;0.00;0.00;;;22.80;73.20;;;;;;5024464;28;20057;-70
2023/08/21 10:21:21;;;;;;;0.00;0.00;;;22.90;73.80;;;;;;5023505;28;20131;-70
2023/08/21 10:23:51;;;;;;;0.00;0.00;;;22.90;73.40;;;;;;5015964;28;20297;-70
2023/08/21 10:26:22;;;;;;;0.00;0.00;;;23.00;74.00;;;;;;5026468;28;20145;-71
2023/08/21 10:29:02;;;;;;;0.00;0.00;;;23.10;73.50;;;;;;5024107;28;20057;-70
2023/08/21 10:31:30;;;;;;;0.00;0.00;;;23.10;73.00;;;;;;5023127;28;20569;-71
2023/08/21 10:33:56;;;;;;;0.00;0.00;;;23.10;72.30;;;;;;5011578;28;20458;-70
2023/08/21 10:36:43;;;;;;;0.00;0.00;;;23.20;73.00;;;;;;5019846;28;20049;-70
2023/08/21 10:39:22;;;;;;;0.00;0.00;;;23.20;72.30;;;;;;5015387;28;20569;-70
2023/08/21 10:41:57;;;;;;;0.00;0.00;;;23.30;72.40;;;;;;5007833;28;20053;-70
2023/08/21 10:44:41;;;;;;;0.00;0.00;;;23.30;71.30;;;;;;5023250;28;20045;-70
2023/08/21 10:47:16;;;;;;;0.00;0.00;;;23.50;71.90;;;;;;5030473;28;20175;-70
2023/08/21 10:49:47;;;;;;;0.00;0.00;;;23.50;71.90;;;;;;5029420;28;20049;-72
2023/08/21 10:52:14;;;;;;;0.00;0.00;;;23.50;71.80;;;;;;5030162;28;20135;-70
2023/08/21 10:54:47;;;;;;;0.00;0.00;;;23.60;72.40;;;;;;5028814;28;20049;-70
2023/08/21 10:57:13;;;;;;;0.00;0.00;;;23.60;71.20;;;;;;5024775;28;20045;-70
2023/08/21 10:59:48;;;;;;;0.00;0.00;;;23.70;71.00;;;;;;5029515;28;20052;-70
2023/08/21 11:02:14;;;;;;;0.00;0.00;;;23.80;71.90;;;;;;5026844;28;20045;-69
2023/08/21 11:04:41;;;;;;;0.00;0.00;;;23.80;71.60;;;;;;5026508;28;20132;-70
2023/08/21 11:07:07;;;;;;;0.00;0.00;;;23.90;69.70;;;;;;5026554;28;20482;-71
2023/08/21 11:09:38;;;;;;;0.00;0.00;;;24.00;71.20;;;;;;5007553;28;20054;-71
2023/08/21 11:12:09;;;;;;;0.10;0.10;;;24.00;70.60;;;;;;4996128;28;20041;-72
2023/08/21 11:14:35;;;;;;;0.00;0.00;;;24.10;69.80;;;;;;5020562;28;20089;-71
2023/08/21 11:17:01;;;;;;;0.20;0.20;;;24.10;69.00;;;;;;5024853;28;20053;-70
2023/08/21 11:19:29;;;;;;;0.00;0.00;;;24.20;68.50;;;;;;5019980;28;20038;-70
2023/08/21 11:21:55;;;;;;;0.00;0.00;;;24.20;69.60;;;;;;5012412;28;20403;-74
2023/08/21 11:24:21;;;;;;;0.00;0.00;;;24.20;67.70;;;;;;5025207;28;20388;-70
2023/08/21 11:26:47;;;;;;;0.00;0.00;;;24.30;67.80;;;;;;5016110;28;20049;-70
2023/08/21 11:29:13;;;;;;;0.00;0.00;;;24.40;67.80;;;;;;5013938;28;20535;-72
2023/08/21 11:31:39;;;;;;;0.00;0.00;;;24.40;66.00;;;;;;5022400;28;20041;-71
2023/08/21 11:34:04;;;;;;;0.00;0.00;;;24.30;64.00;;;;;;5016253;28;20041;-71
2023/08/21 11:36:30;;;;;;;0.00;0.00;;;24.50;66.90;;;;;;5015935;28;20054;-71
2023/08/21 11:39:03;;;;;;;2.30;0.57;;;24.60;67.00;;;;;;5001962;28;20049;-71
2023/08/21 11:41:29;;;;;;;0.00;0.00;;;24.70;67.30;;;;;;5016956;28;20057;-71
2023/08/21 11:44:06;;;;;;;0.00;0.00;;;24.70;62.90;;;;;;5021372;28;20045;-71
2023/08/21 11:46:31;;;;;;;0.00;0.00;;;24.90;64.40;;;;;;5020950;28;20053;-71
2023/08/21 11:48:57;;;;;;;0.20;0.20;;;25.00;65.50;;;;;;5021825;28;20048;-75
2023/08/21 11:51:22;;;;;;;0.00;0.00;;;25.00;60.70;;;;;;5022509;28;20088;-70
2023/08/21 11:53:49;;;;;;;0.00;0.00;;;25.10;64.50;;;;;;5021048;28;20333;-71
2023/08/21 11:56:16;;;;;;;0.00;0.00;;;25.20;64.80;;;;;;5022076;28;20542;-71
2023/08/21 11:58:46;;;;;;;0.00;0.00;;;25.20;61.40;;;;;;5016930;28;20056;-72
2023/08/21 12:01:16;;;;;;;0.00;0.00;;;25.20;61.70;;;;;;5021657;28;20129;-71
2023/08/21 12:03:44;;;;;;;0.00;0.00;;;25.00;61.40;;;;;;5017112;28;20491;-71
2023/08/21 12:06:11;;;;;;;0.00;0.00;;;25.00;63.50;;;;;;5012572;28;20103;-71
2023/08/21 12:08:38;;;;;;;0.00;0.00;;;25.00;62.80;;;;;;5024195;28;20041;-71
2023/08/21 12:11:04;;;;;;;0.00;0.00;;;25.00;64.10;;;;;;5012938;28;20049;-71
2023/08/21 12:13:30;;;;;;;0.10;0.10;;;25.00;63.40;;;;;;5015297;28;20041;-70
2023/08/21 12:15:56;;;;;;;0.00;0.00;;;24.80;61.50;;;;;;5012481;28;20054;-71
2023/08/21 12:18:22;;;;;;;0.00;0.00;;;24.80;62.30;;;;;;5013309;28;20053;-71
2023/08/21 12:20:48;;;;;;;0.00;0.00;;;24.80;64.60;;;;;;5017194;28;20060;-70
2023/08/21 12:23:13;;;;;;;0.00;0.00;;;25.00;65.10;;;;;;5020181;28;20045;-74
2023/08/21 12:25:39;;;;;;;0.00;0.00;;;25.00;63.90;;;;;;5014111;28;20058;-71
2023/08/21 12:28:06;;;;;;;0.00;0.00;;;25.00;62.50;;;;;;5019480;28;20049;-70
2023/08/21 12:30:32;;;;;;;0.00;0.00;;;25.10;62.50;;;;;;5007967;28;20049;-71
2023/08/21 12:32:57;;;;;;;0.00;0.00;;;25.20;62.30;;;;;;5013776;28;20057;-72
2023/08/21 12:35:23;;;;;;;0.00;0.00;;;25.20;63.30;;;;;;5031520;28;20077;-71
2023/08/21 12:37:49;;;;;;;0.00;0.00;;;25.10;61.90;;;;;;5014296;28;20066;-71
2023/08/21 12:40:14;;;;;;;0.00;0.00;;;25.10;62.50;;;;;;5017524;28;20057;-72
2023/08/21 12:42:40;;;;;;;0.00;0.00;;;25.00;61.10;;;;;;5014276;28;20056;-70
2023/08/21 12:45:06;;;;;;;0.00;0.00;;;25.00;62.20;;;;;;5014848;28;20470;-70